Antelope Valley, Nevada Weather observations

Data are for 10 minute period ending at time listed.
 Day   Time   Solar   Ave.   Ave.  Ave.  Vector  Max.   Baro.   Total    
  of    of     Rad.   Air    Rel.  Wind   Wind   Wind  Press.  Precip.   
Year   Day            Temp.  Hum.  Speed  Dir.   Gust                    
2015   (PST)  Kw/m2    F      %     mph   deg.    mph    mb.     in.     
-------------------------------------------------------------------------
 116   21:30   0.00   38.4    71    1.5   133     2.6   856.6    0.00 
 116   21:40   0.00   37.1    74    0.9    96     4.2   856.6    0.00 
 116   21:50   0.00   34.9    80    3.9   145     5.1   856.6    0.00 
 116   22:00   0.00   35.4    82    2.6   217     4.0   856.6    0.00 
 116   22:10   0.00   36.3    79    2.7   178     3.9   856.6    0.00 
 116   22:20   0.00   36.4    75    1.9   249     4.2   856.6    0.00 
 116   22:30   100.00  99999.0   99999  99999.0   99999   99999.0   99999.0   99999.00 
 116   22:40   100.00  99999.0   99999  99999.0   99999   99999.0   99999.0   99999.00 
 116   22:50   100.00  99999.0   99999  99999.0   99999   99999.0   99999.0   99999.00 
 116   23:00   100.00  99999.0   99999  99999.0   99999   99999.0   99999.0   99999.00 
 116   23:10   100.00  99999.0   99999  99999.0   99999   99999.0   99999.0   99999.00 
 116   23:20   100.00  99999.0   99999  99999.0   99999   99999.0   99999.0   99999.00 
 116   23:30   100.00  99999.0   99999  99999.0   99999   99999.0   99999.0   99999.00 
 116   23:40   100.00  99999.0   99999  99999.0   99999   99999.0   99999.0   99999.00 
 116   23:50   100.00  99999.0   99999  99999.0   99999   99999.0   99999.0   99999.00 
 117    0:00   100.00  99999.0   99999  99999.0   99999   99999.0   99999.0   99999.00 
 117    0:10   100.00  99999.0   99999  99999.0   99999   99999.0   99999.0   99999.00 
 117    0:20   100.00  99999.0   99999  99999.0   99999   99999.0   99999.0   99999.00 
 117    0:30   0.00   31.7    86    2.7   214     5.5   857.0    0.00 
 117    0:40   0.00   30.2    89    3.7   142     5.3   856.9    0.00 
 117    0:50   0.00   30.7    89    1.9   142     2.9   856.9    0.00 
 117    1:00   0.00   30.8    89    1.3   148     2.2   856.9    0.00 
 117    1:10   0.00   31.5    89    0.4   143     2.3   857.0    0.00 
 117    1:20   0.00   31.9    87    1.0   278     2.6   857.0    0.00 
 117    1:30   0.00   31.5    86    2.3   197     3.6   857.1    0.00 
 117    1:40   0.00   30.4    86    3.5   209     5.0   857.1    0.00 
 117    1:50   0.00   29.1    88    3.8   182     4.4   857.0    0.00 
 117    2:00   0.00   28.8    90    3.0   180     4.2   857.0    0.00 
 117    2:10   0.00   29.9    91    2.3   185     2.9   857.0    0.00 
 117    2:20   0.00   30.3    90    2.1   174     2.8   857.1    0.00 
 117    2:30   0.00   30.3    89    3.0   178     4.1   857.2    0.00 
 117    2:40   0.00   29.8    89    4.1   181     4.5   857.1    0.00 
 117    2:50   0.00   29.1    89    4.2   187     4.7   857.2    0.00 
 117    3:00   0.00   29.1    90    3.7   169     4.5   857.3    0.00 
 117    3:10   0.00   28.4    89    4.3   148     5.0   857.3    0.00 
 117    3:20   0.00   28.0    91    3.0   159     4.5   857.2    0.00 
 117    3:30   0.00   28.0    91    1.7   254     3.3   857.2    0.00 
 117    3:40   0.00   27.9    91    2.1   266     3.9   857.2    0.00 
 117    3:50   0.00   27.6    92    2.8   246     3.4   857.3    0.00 
 117    4:00   0.00   27.6    91    3.4   205     4.3   857.2    0.00 
 117    4:10   0.00   26.4    91    3.9   178     4.7   857.2    0.00 
 117    4:20   0.00   26.8    92    4.1   206     4.7   857.4    0.00 
 117    4:30   0.00   26.7    91    4.2   183     4.7   857.6    0.00 
 117    4:40   0.00   27.2    91    4.8   168     5.9   857.7    0.00 
 117    4:50   0.00   28.0    90    5.5   174     6.1   857.8    0.00 
 117    5:00   0.01   28.4    89    4.4   166     5.3   857.9    0.00 
 117    5:10   0.01   27.7    89    3.3   134     4.1   858.1    0.00 
 117    5:20   0.01   28.9    90    1.1   170     2.2   858.3    0.00 
 117    5:30   0.00   29.4    84    2.2   289     3.5   858.4    0.00 
 117    5:40   0.05   27.7    87    2.0   293     2.6   858.4    0.00 
 117    5:50   0.11   28.9    88    0.6   341     1.0   858.5    0.00 
 117    6:00   0.09   30.3    87    0.3    19     1.1   858.6    0.00 
 117    6:10   0.14   31.6    85    0.1   360     1.5   858.6    0.00 
 117    6:20   0.07   32.3    85    1.1   146     1.9   858.7    0.00 
 117    6:30   0.21   33.9    83    1.2   115     4.0   858.6    0.00 
 117    6:40   0.24   34.7    83    1.2   174     3.9   858.6    0.00 
 117    6:50   0.30   35.5    81    0.3   292     1.9   858.6    0.00 
 117    7:00   0.34   36.3    80    2.7   284     3.8   858.6    0.00 
 117    7:10   0.32   38.0    79    1.7   285     2.8   858.7    0.00 
 117    7:20   0.38   39.8    76    1.2   280     2.6   858.7    0.00 
 117    7:30   0.40   41.6    72    1.0   304     2.5   858.7    0.00 
 117    7:40   0.41   43.0    66    1.3   322     2.9   858.7    0.00 
 117    7:50   0.34   44.6    62    0.7     7     2.3   858.8    0.00 
 117    8:00   0.52   46.1    55    1.1    54     3.7   858.9    0.00 
 117    8:10   0.55   46.5    57    2.7    54     5.3   859.0    0.00 
 117    8:20   0.58   46.4    56    3.3    46     6.0   859.1    0.00 
 117    8:30   0.42   47.1    47    4.7    45     8.1   859.2    0.00 
 117    8:40   0.53   47.9    41    6.7    46    10.2   859.1    0.00 
 117    8:50   0.54   48.3    40    7.5    39    11.4   859.1    0.00 
 117    9:00   0.48   48.9    39    9.1    22    13.6   859.1    0.00 
 117    9:10   0.56   49.7    37    9.9    35    16.6   859.0    0.00 
 117    9:20   0.70   50.4    36   10.5    27    15.3   859.0    0.00 
 117    9:30   0.78   50.9    34   11.3    30    18.0   858.9    0.00 
 117    9:40   0.80   51.1    34    9.2    30    14.2   858.9    0.00 
 117    9:50   0.82   51.4    33    7.0    37    11.0   858.8    0.00 
 117   10:00   0.79   52.1    32    6.0    28    10.3   858.8    0.00 
 117   10:10   0.46   52.2    32    7.8    24    13.0   858.8    0.00 
 117   10:20   0.48   53.2    33    7.5    11    13.4   858.7    0.00 
 117   10:30   0.45   53.0    31    5.1   352     9.8   858.6    0.00 
 117   10:40   0.65   53.7    30    6.5    15    13.2   858.5    0.00 
 117   10:50   0.91   54.3    30    7.5    12    12.9   858.4    0.00 
 117   11:00   0.92   54.3    31    7.1    64    14.3   858.3    0.00 
 117   11:10   0.94   54.6    29    6.5     9    15.0   858.3    0.00 
 117   11:20   0.93   55.1    27    5.5     2    13.4   858.2    0.00 
 117   11:30   0.93   55.6    28    8.5    13    13.8   858.2    0.00 
 117   11:40   0.95   55.7    26    5.4   354    10.4   858.0    0.00 
 117   11:50   0.95   56.2    27    8.2    37    13.6   857.9    0.00 
 117   12:00   0.95   56.4    24    4.0   342     8.2   857.8    0.00 
 117   12:10   0.94   56.7    25    6.2    38    11.5   857.8    0.00 
 117   12:20   0.94   57.5    24    6.3    21    12.5   857.8    0.00 
 117   12:30   0.93   57.8    25    7.1    16    14.8   857.6    0.00 
 117   12:40   0.93   57.7    24    6.7    19    15.1   857.5    0.00 
 117   12:50   0.92   58.2    25    7.7    32    15.3   857.3    0.00 
 117   13:00   0.84   58.6    24    8.7    24    13.5   857.3    0.00 
 117   13:10   0.90   58.5    23    8.2    40    13.4   857.2    0.00 
 117   13:20   0.88   58.8    24    8.1     7    15.1   857.2    0.00 
 117   13:30   0.87   59.0    24    9.8    17    17.4   857.0    0.00 
 117   13:40   0.85   59.3    24    8.1    15    13.6   856.9    0.00 
 117   13:50   0.83   60.1    24    6.1    20    14.0   856.8    0.00 
 117   14:00   0.81   59.8    24    7.3    19    15.2   856.6    0.00 
 117   14:10   0.79   60.1    25    6.7   336    13.6   856.4    0.00 
 117   14:20   0.77   60.3    25    8.3    21    16.9   856.2    0.00 
 117   14:30   0.75   60.4    25    8.5   349    14.4   856.1    0.00 
 117   14:40   0.72   60.7    24    6.5    12    11.8   855.9    0.00 
 117   14:50   0.70   61.2    25    7.5    16    14.2   855.8    0.00 
 117   15:00   0.67   61.0    24    6.5   342    11.5   855.8    0.00 
 117   15:10   0.64   61.3    23    4.8    24    11.5   855.7    0.00 
 117   15:20   0.61   61.4    22    4.9     4     9.7   855.6    0.00 
 117   15:30   0.58   61.8    25    7.2     9    12.6   855.4    0.00 
 117   15:40   0.56   61.7    24    5.7    13    10.6   855.3    0.00 
 117   15:50   0.52   62.0    24    7.0    28    12.5   855.3    0.00 
 117   16:00   0.49   61.9    23    6.0     3    13.7   855.3    0.00 
 117   16:10   0.46   62.2    24    5.6     0    10.7   855.2    0.00 
 117   16:20   0.36   62.4    25    7.1    36    10.1   855.2    0.00 
 117   16:30   0.39   62.1    24    5.8   354    10.4   855.2    0.00 
 117   16:40   0.36   62.3    25    6.4    17    10.1   855.1    0.00 
 117   16:50   0.33   62.0    26    7.2    18    11.3   855.1    0.00 
 117   17:00   0.29   61.7    27    7.4    16    10.6   855.1    0.00 
 117   17:10   0.26   61.2    28    6.9    18    11.6   855.1    0.00 
 117   17:20   0.22   60.9    29    7.1    22    10.3   855.1    0.00 
 117   17:30   0.23   60.3    29    7.3    18    11.0   855.1    0.00 
 117   17:40   0.16   60.0    29    7.4    22    11.8   855.1    0.00 
 117   17:50   0.19   58.9    31    7.2    17     9.6   855.2    0.00 
 117   18:00   0.13   58.2    32    7.1    20     9.9   855.2    0.00 
 117   18:10   0.08   57.7    31    7.6    22     9.9   855.2    0.00 
 117   18:20   0.05   56.5    33    7.0    19     9.1   855.3    0.00 
 117   18:30   0.02   54.6    37    6.5    21     8.4   855.3    0.00 
 117   18:40   0.01   52.9    39    6.4    16     8.0   855.3    0.00 
 117   18:50   0.00   51.5    41    5.7    16     6.6   855.3    0.00 
 117   19:00   0.00   50.0    44    5.2    14     6.0   855.4    0.00 
 117   19:10   0.00   48.0    49    4.7    38     5.9   855.5    0.00 
 117   19:20   0.00   47.2    50    4.5    56     5.6   855.5    0.00 
 117   19:30   0.00   47.2    51    4.3    66     6.0   855.5    0.00 
 117   19:40   0.00   47.9    47    4.6    89     6.7   855.6    0.00 
 117   19:50   0.00   49.5    42    4.4    72     6.1   855.7    0.00 
 117   20:00   0.00   49.1    44    4.5    41     5.1   855.7    0.00 
 117   20:10   0.00   47.0    50    3.6    11     4.5   855.8    0.00 
 117   20:20   0.00   49.7    43    4.4   341     5.3   855.8    0.00 
 117   20:30   0.00   49.7    41    2.9    20     4.5   855.9    0.00 
 117   20:40   0.00   46.9    45    3.2    26     3.9   855.9    0.00 
 117   20:50   0.00   45.9    49    3.6    75     4.9   855.9    0.00 
 117   21:00   0.00   45.7    49    4.0    81     4.9   855.8    0.00 
 117   21:10   0.00   46.3    48    4.6    58     5.3   855.8    0.00 
 117   21:20   0.00   46.1    48    4.4    70     5.0   855.7    0.00 

Return to Antelope Valley graphs page.


Western Regional Climate Center,wrcc@dri.edu